Hampton, Mississippi
Current Conditions -  °F | °C
As of 7:53 PM on Sunday 23 Nov 2014 (Local Time) from KGLH Reporting Station
Clear Clear  
Wind Chill: 63°   Ceiling: Unl
Heat Index: 63°   Visibility: 10mi
Dew Point: 58°   Wind: 14mph
Humidity: 84%   Direction: 190°S
Pressure: 29.49"   Gusts: NA
Location:  33.0379°N, 90.9708°W
Report Text: KGLH 240153Z AUTO 19012KT 10SM CLR 17/14 A2949 RMK AO2 SLP993 T01720144 $
Loading
Personal Weather Stations






























Interactive Weather Map New forecast layout! Learn more

10-Day Weather Forecast

Advertisements
Track Severe Weather on mobile